Time;durP1;ratioP1;P1;durP2;ratioP2;P2;SDS_P1;SDS_P2;PMS_P1;PMS_P2;Temp;Humidity;BMP_temperature;BMP_pressure;BME280_temperature;BME280_humidity;BME280_pressure;Samples;Min_cycle;Max_cycle;Signal;HPM_P1;HPM_P2
2023/10/01 00:01:00;;;;;;;15.85;5.80;;;;;;;10.04;100.00;94919.66;5031963;28;20045;-58
2023/10/01 00:03:27;;;;;;;15.73;6.38;;;;;;;10.06;100.00;94905.56;5030119;28;20049;-58
2023/10/01 00:05:55;;;;;;;16.20;6.47;;;;;;;10.03;100.00;94900.84;5031295;28;20045;-58
2023/10/01 00:08:22;;;;;;;15.32;7.05;;;;;;;10.03;100.00;94896.16;5031685;28;20252;-59
2023/10/01 00:10:49;;;;;;;16.03;7.27;;;;;;;9.95;100.00;94895.34;5031683;28;20044;-58
2023/10/01 00:13:15;;;;;;;16.20;6.32;;;;;;;9.91;100.00;94893.75;5031129;28;20398;-58
2023/10/01 00:15:43;;;;;;;14.40;6.60;;;;;;;9.83;100.00;94890.22;5031989;28;20048;-59
2023/10/01 00:18:10;;;;;;;15.65;6.22;;;;;;;9.84;100.00;94889.06;5031139;28;20045;-58
2023/10/01 00:20:37;;;;;;;15.73;6.30;;;;;;;9.80;100.00;94883.56;5031601;28;20045;-59
2023/10/01 00:23:04;;;;;;;17.77;6.70;;;;;;;9.78;100.00;94885.91;5031430;28;20076;-59
2023/10/01 00:25:32;;;;;;;15.98;6.50;;;;;;;9.78;100.00;94894.13;5031472;28;20053;-58
2023/10/01 00:27:59;;;;;;;16.90;8.00;;;;;;;9.82;100.00;94899.63;5030750;28;20054;-58
2023/10/01 00:30:33;;;;;;;16.52;7.22;;;;;;;9.75;100.00;94892.13;5031823;28;20047;-59
2023/10/01 00:33:06;;;;;;;14.82;6.50;;;;;;;9.75;100.00;94894.09;5031075;28;20049;-58
2023/10/01 00:35:37;;;;;;;14.90;6.03;;;;;;;9.70;100.00;94899.94;5031688;28;20046;-59
2023/10/01 00:38:05;;;;;;;12.93;6.10;;;;;;;9.65;100.00;94897.59;5031011;28;20384;-58
2023/10/01 00:40:32;;;;;;;19.90;8.93;;;;;;;9.64;100.00;94896.81;5031399;28;20430;-59
2023/10/01 00:42:59;;;;;;;16.42;7.45;;;;;;;9.64;100.00;94896.81;5031022;28;20447;-58
2023/10/01 00:45:25;;;;;;;15.25;6.90;;;;;;;9.61;100.00;94897.56;5031359;28;20434;-58
2023/10/01 00:47:53;;;;;;;14.43;6.37;;;;;;;9.60;100.00;94896.78;5030960;28;20042;-58
2023/10/01 00:50:21;;;;;;;14.05;5.75;;;;;;;9.58;100.00;94890.13;5031400;28;20045;-58
2023/10/01 00:52:51;;;;;;;15.98;6.15;;;;;;;9.56;100.00;94885.03;5030966;28;20048;-57
2023/10/01 00:55:20;;;;;;;15.43;5.90;;;;;;;9.54;100.00;94890.13;5031067;28;20413;-58
2023/10/01 00:57:49;;;;;;;15.00;5.55;;;;;;;9.50;100.00;94891.28;5030931;28;20046;-58
2023/10/01 01:00:19;;;;;;;12.10;5.33;;;;;;;9.46;100.00;94894.00;5030206;28;20776;-58
2023/10/01 01:03:00;;;;;;;14.02;5.90;;;;;;;9.36;100.00;94886.50;5030972;28;20095;-58
2023/10/01 01:05:34;;;;;;;16.20;6.50;;;;;;;9.25;100.00;94888.41;5029900;28;20739;-58
2023/10/01 01:08:09;;;;;;;17.50;6.93;;;;;;;9.16;100.00;94886.00;5029585;28;20097;-58
2023/10/01 01:10:41;;;;;;;16.90;7.80;;;;;;;9.15;100.00;94887.94;5030937;28;20052;-58
2023/10/01 01:13:08;;;;;;;15.50;6.33;;;;;;;9.15;100.00;94889.91;5029997;28;20333;-58
2023/10/01 01:15:38;;;;;;;16.38;6.68;;;;;;;9.15;100.00;94885.19;5030576;28;20038;-58
2023/10/01 01:18:13;;;;;;;18.27;7.18;;;;;;;9.10;100.00;94893.00;5030111;28;20045;-58
2023/10/01 01:20:45;;;;;;;15.80;6.70;;;;;;;9.12;100.00;94883.25;5030713;28;20041;-59
2023/10/01 01:23:21;;;;;;;76.10;39.75;;;;;;;9.15;100.00;94887.94;5029998;28;20469;-59
2023/10/01 01:25:54;;;;;;;22.07;8.33;;;;;;;9.19;100.00;94883.28;5030515;28;20414;-59
2023/10/01 01:28:27;;;;;;;20.15;7.95;;;;;;;9.14;100.00;94883.66;5029520;28;20230;-59
2023/10/01 01:30:55;;;;;;;20.08;7.30;;;;;;;9.12;100.00;94868.78;5029868;28;20045;-58
2023/10/01 01:33:26;;;;;;;16.73;6.53;;;;;;;8.95;100.00;94864.75;5030534;28;20041;-59
2023/10/01 01:35:54;;;;;;;16.33;6.50;;;;;;;8.96;100.00;94866.31;5029917;28;20445;-58
2023/10/01 01:38:22;;;;;;;16.93;6.17;;;;;;;8.99;100.00;94868.28;5030283;28;20053;-59
2023/10/01 01:40:51;;;;;;;15.13;5.97;;;;;;;8.93;100.00;94870.63;5029550;28;20040;-58
2023/10/01 01:43:30;;;;;;;14.50;6.15;;;;;;;8.91;100.00;94861.97;5030361;28;20037;-58
2023/10/01 01:46:08;;;;;;;11.57;5.32;;;;;;;8.96;100.00;94866.31;5029551;28;20052;-58
2023/10/01 01:48:40;;;;;;;14.57;6.00;;;;;;;8.79;100.00;94871.31;5029801;28;20112;-58
2023/10/01 01:51:08;;;;;;;14.37;6.37;;;;;;;8.64;100.00;94863.38;5028403;28;20044;-58
2023/10/01 01:53:36;;;;;;;160.23;70.40;;;;;;;8.64;100.00;94858.69;5029911;28;20041;-58
2023/10/01 01:56:12;;;;;;;28.65;12.63;;;;;;;8.65;100.00;94862.19;5029542;28;20052;-58
2023/10/01 01:58:40;;;;;;;16.05;6.20;;;;;;;8.60;100.00;94866.84;5029627;28;20045;-58
2023/10/01 02:01:08;;;;;;;14.02;6.70;;;;;;;8.60;100.00;94871.56;5029419;28;20045;-58
2023/10/01 02:03:37;;;;;;;13.97;6.10;;;;;;;8.59;100.00;94864.50;5029715;28;20083;-58
2023/10/01 02:06:08;;;;;;;15.02;6.28;;;;;;;8.32;100.00;94863.88;5029599;28;20051;-58
2023/10/01 02:08:49;;;;;;;15.60;6.13;;;;;;;8.27;100.00;94864.19;5028306;28;20064;-58
2023/10/01 02:11:18;;;;;;;14.80;5.93;;;;;;;8.42;100.00;94865.94;5028647;28;20879;-58
2023/10/01 02:13:47;;;;;;;14.13;6.05;;;;;;;8.47;100.00;94870.25;5029683;28;20509;-58
2023/10/01 02:22:00;;;;;;;14.90;6.15;;;;;;;8.48;100.00;94864.41;5006443;28;20491;-58
2023/10/01 02:27:14;;;;;;;13.40;5.63;;;;;;;8.47;100.00;94856.59;5029073;28;20068;-58
2023/10/01 02:30:12;;;;;;;14.90;5.90;;;;;;;8.46;100.00;94858.53;5029413;28;20438;-58
2023/10/01 02:32:35;;;;;;;15.57;6.40;;;;;;;8.45;100.00;94853.44;5028851;28;20457;-58
2023/10/01 02:35:33;;;;;;;14.15;5.60;;;;;;;8.39;100.00;94855.72;5028857;28;20110;-58
2023/10/01 02:37:49;;;;;;;13.77;5.50;;;;;;;8.34;100.00;94856.06;5028953;28;20050;-58
2023/10/01 02:40:18;;;;;;;13.65;5.57;;;;;;;8.32;100.00;94853.72;5029167;28;20049;-58
2023/10/01 02:42:49;;;;;;;14.07;5.33;;;;;;;8.33;100.00;94849.00;5029329;28;20524;-58
2023/10/01 02:45:31;;;;;;;15.25;5.93;;;;;;;8.32;100.00;94844.72;5043710;28;20033;-58
2023/10/01 02:48:13;;;;;;;12.70;5.43;;;;;;;8.28;100.00;94841.94;5028639;28;20046;-58
2023/10/01 02:50:45;;;;;;;13.88;5.38;;;;;;;8.25;100.00;94836.44;5026137;28;20056;-58
2023/10/01 02:53:14;;;;;;;14.68;6.00;;;;;;;8.25;100.00;94840.00;5028685;28;20060;-58
2023/10/01 02:55:45;;;;;;;13.53;5.40;;;;;;;8.23;100.00;94844.25;5028954;28;20049;-59
2023/10/01 02:58:28;;;;;;;81.35;40.90;;;;;;;8.24;100.00;94848.56;5028220;28;20397;-58
2023/10/01 03:00:55;;;;;;;25.38;11.27;;;;;;;8.22;100.00;94845.44;5028949;28;20103;-58
2023/10/01 03:03:32;;;;;;;21.42;9.90;;;;;;;8.19;100.00;94846.97;5029108;28;20048;-58
2023/10/01 03:06:08;;;;;;;16.52;7.05;;;;;;;8.21;100.00;94847.38;5016670;28;20049;-58
2023/10/01 03:11:11;;;;;;;14.65;5.60;;;;;;;8.17;100.00;94841.09;5028850;28;20060;-59
2023/10/01 03:13:40;;;;;;;15.65;5.65;;;;;;;8.15;100.00;94837.94;5028875;28;20399;-59
2023/10/01 03:16:42;;;;;;;12.88;5.30;;;;;;;8.15;100.00;94836.00;5028208;28;20103;-58
2023/10/01 03:19:13;;;;;;;14.50;6.00;;;;;;;8.09;100.00;94837.50;5026688;28;20056;-58
2023/10/01 03:24:27;;;;;;;14.57;5.90;;;;;;;8.02;100.00;94837.44;5028108;28;20460;-59
2023/10/01 03:26:57;;;;;;;14.95;5.65;;;;;;;8.01;100.00;94833.13;5028304;28;20482;-58
2023/10/01 03:29:34;;;;;;;13.07;5.90;;;;;;;8.00;100.00;94834.28;5019259;28;20118;-59
2023/10/01 03:32:26;;;;;;;14.35;6.03;;;;;;;7.99;100.00;94838.19;5032148;28;20363;-59
2023/10/01 03:34:52;;;;;;;15.43;5.97;;;;;;;7.99;100.00;94838.97;5032616;28;20099;-59
2023/10/01 03:37:22;;;;;;;14.02;6.03;;;;;;;7.98;100.00;94840.13;5031867;28;20620;-59
2023/10/01 03:39:52;;;;;;;16.13;6.03;;;;;;;7.99;100.00;94844.44;5032012;28;20104;-58
2023/10/01 03:42:19;;;;;;;14.07;6.30;;;;;;;7.88;100.00;94845.50;5032537;28;20047;-59
2023/10/01 03:47:34;;;;;;;14.57;5.70;;;;;;;7.85;100.00;94846.22;5031770;28;20708;-59
2023/10/01 03:50:03;;;;;;;15.55;6.35;;;;;;;7.85;100.00;94849.78;5030736;28;20052;-59
2023/10/01 03:52:30;;;;;;;15.65;6.55;;;;;;;7.84;100.00;94844.69;5032393;28;20056;-59
2023/10/01 03:55:25;;;;;;;14.80;6.47;;;;;;;7.82;100.00;94844.25;5031448;28;20054;-59
2023/10/01 03:58:07;;;;;;;17.35;6.72;;;;;;;7.78;100.00;94845.00;5030728;28;20063;-58
2023/10/01 04:03:21;;;;;;;13.75;6.10;;;;;;;7.73;100.00;94848.09;5031099;28;20045;-58
2023/10/01 04:05:48;;;;;;;12.88;5.70;;;;;;;7.75;100.00;94845.75;5031619;28;20059;-59
2023/10/01 04:08:15;;;;;;;13.90;5.72;;;;;;;7.77;100.00;94851.63;5030205;28;20413;-59
2023/10/01 04:10:47;;;;;;;12.52;6.03;;;;;;;7.78;100.00;94845.00;5031422;28;20426;-59
2023/10/01 04:13:24;;;;;;;15.87;6.80;;;;;;;7.77;100.00;94837.97;5030969;28;20037;-59
2023/10/01 04:15:57;;;;;;;17.83;6.50;;;;;;;7.69;100.00;94843.75;5031047;28;20079;-58
2023/10/01 04:18:28;;;;;;;15.45;6.70;;;;;;;7.67;100.00;94837.88;5043878;28;20045;-59
2023/10/01 04:23:31;;;;;;;13.35;5.63;;;;;;;7.72;100.00;94845.72;5031055;28;20041;-59
2023/10/01 04:26:06;;;;;;;13.90;6.20;;;;;;;7.71;100.00;94847.66;5031050;28;20465;-59
2023/10/01 04:28:36;;;;;;;16.75;6.40;;;;;;;7.66;100.00;94850.72;5030719;28;20499;-59
2023/10/01 04:31:09;;;;;;;14.73;6.22;;;;;;;7.65;100.00;94849.16;5024820;28;20049;-58
2023/10/01 04:33:37;;;;;;;14.82;6.15;;;;;;;7.67;100.00;94844.13;5028763;28;20482;-59
2023/10/01 04:36:10;;;;;;;13.50;6.05;;;;;;;7.66;100.00;94845.25;5030572;28;20045;-59
2023/10/01 04:38:41;;;;;;;13.03;5.43;;;;;;;7.64;100.00;94842.13;5030781;28;20044;-59
2023/10/01 04:41:18;;;;;;;13.65;5.78;;;;;;;7.60;100.00;94853.00;5030705;28;20053;-59
2023/10/01 04:43:59;;;;;;;14.25;6.15;;;;;;;7.58;100.00;94849.06;5030708;28;20045;-59
2023/10/01 04:46:29;;;;;;;13.38;6.10;;;;;;;7.49;100.00;94843.91;5031323;28;21763;-59
2023/10/01 04:48:57;;;;;;;13.07;6.07;;;;;;;7.51;100.00;94851.75;5030398;28;20536;-58
2023/10/01 04:51:44;;;;;;;14.80;6.13;;;;;;;7.48;100.00;94853.25;5030692;28;20044;-59
2023/10/01 04:54:21;;;;;;;12.88;5.93;;;;;;;7.35;100.00;94849.22;5030347;28;20475;-59
2023/10/01 04:56:49;;;;;;;14.75;6.50;;;;;;;7.32;100.00;94850.72;5030460;28;20045;-59
2023/10/01 04:59:16;;;;;;;15.23;6.40;;;;;;;7.34;100.00;94851.13;5029688;28;20319;-59
2023/10/01 05:01:43;;;;;;;13.18;5.93;;;;;;;7.30;100.00;94844.06;5029286;28;20046;-59
2023/10/01 05:04:14;;;;;;;13.23;6.37;;;;;;;7.27;100.00;94847.56;5030009;28;20068;-58
2023/10/01 05:06:43;;;;;;;15.60;6.28;;;;;;;7.24;100.00;94840.88;5030320;28;20091;-59
2023/10/01 05:09:14;;;;;;;14.73;6.38;;;;;;;7.22;100.00;94847.88;5029671;28;20049;-58
2023/10/01 05:11:42;;;;;;;12.50;5.68;;;;;;;7.24;100.00;94851.00;5030251;28;20059;-59
2023/10/01 05:14:11;;;;;;;14.00;6.10;;;;;;;7.27;100.00;94851.06;5029734;28;20137;-58
2023/10/01 05:16:39;;;;;;;15.07;5.70;;;;;;;7.27;100.00;94856.53;5030376;28;20048;-59
2023/10/01 05:19:13;;;;;;;15.20;5.75;;;;;;;7.23;100.00;94846.72;5029654;28;20392;-59
2023/10/01 05:21:46;;;;;;;13.35;6.30;;;;;;;7.07;100.00;94855.09;5029100;28;20048;-59
2023/10/01 05:24:34;;;;;;;13.05;5.43;;;;;;;7.09;100.00;94867.22;5029334;28;20037;-59
2023/10/01 05:27:09;;;;;;;20.63;5.85;;;;;;;7.03;100.00;94868.69;5029629;28;20054;-59
2023/10/01 05:29:39;;;;;;;18.73;6.10;;;;;;;7.04;100.00;94875.72;5029893;28;20075;-59
2023/10/01 05:32:06;;;;;;;12.77;5.65;;;;;;;7.12;100.00;94871.94;5029350;28;20540;-59
2023/10/01 05:34:33;;;;;;;15.07;6.75;;;;;;;7.19;100.00;94871.25;5030037;28;20372;-59
2023/10/01 05:37:12;;;;;;;18.17;6.30;;;;;;;7.14;100.00;94877.00;5028961;28;20456;-58
2023/10/01 05:39:55;;;;;;;12.30;6.20;;;;;;;7.28;100.00;94890.84;5029526;28;20056;-59
2023/10/01 05:42:36;;;;;;;11.83;5.70;;;;;;;7.40;100.00;94881.63;5028736;28;20926;-59
2023/10/01 05:45:09;;;;;;;13.45;5.53;;;;;;;7.44;100.00;94877.00;5029243;28;20421;-59
2023/10/01 05:47:45;;;;;;;28.38;5.30;;;;;;;7.15;100.00;94879.38;5029456;28;20037;-59
2023/10/01 05:50:14;;;;;;;21.00;5.65;;;;;;;7.12;100.00;94880.13;5029324;28;20042;-59
2023/10/01 05:52:41;;;;;;;27.05;6.20;;;;;;;7.30;100.00;94888.53;5028795;28;20106;-59
2023/10/01 05:55:12;;;;;;;13.43;6.03;;;;;;;7.45;100.00;94881.31;5028989;28;20045;-58
2023/10/01 05:57:39;;;;;;;37.53;5.93;;;;;;;7.51;100.00;94882.56;5028843;28;20038;-58
2023/10/01 06:00:17;;;;;;;31.20;6.07;;;;;;;7.28;100.00;94877.19;5027919;28;20057;-58
2023/10/01 06:02:48;;;;;;;17.90;5.68;;;;;;;7.22;100.00;94875.94;5027052;28;20418;-58
2023/10/01 06:05:42;;;;;;;12.93;5.80;;;;;;;7.49;100.00;94871.22;5016255;28;20287;-58
2023/10/01 06:08:14;;;;;;;12.83;5.50;;;;;;;7.65;100.00;94864.78;5028738;28;20479;-60
2023/10/01 06:10:56;;;;;;;12.43;5.47;;;;;;;7.71;100.00;94857.81;5029027;28;20061;-60
2023/10/01 06:13:24;;;;;;;13.50;5.70;;;;;;;7.72;100.00;94864.84;5028113;28;20441;-59
2023/10/01 06:15:52;;;;;;;12.45;5.60;;;;;;;7.86;100.00;94867.72;5028373;28;20041;-58
2023/10/01 06:18:20;;;;;;;11.68;5.47;;;;;;;7.89;100.00;94867.00;5028890;28;20048;-59
2023/10/01 06:20:47;;;;;;;14.40;5.67;;;;;;;8.05;100.00;94863.22;5028801;28;20068;-59
2023/10/01 06:23:14;;;;;;;12.10;5.80;;;;;;;7.90;100.00;94863.06;5047921;28;20428;-59
2023/10/01 06:25:41;;;;;;;11.35;5.65;;;;;;;8.19;100.00;94869.63;5048631;28;20051;-59
2023/10/01 06:28:09;;;;;;;13.07;6.10;;;;;;;8.46;100.00;94868.72;5048041;28;20033;-58
2023/10/01 06:30:40;;;;;;;12.40;6.10;;;;;;;8.42;100.00;94863.19;5048503;28;20049;-59
2023/10/01 06:33:09;;;;;;;10.53;5.47;;;;;;;8.72;100.00;94873.22;5048013;28;20037;-57
2023/10/01 06:35:56;;;;;;;12.00;5.60;;;;;;;9.03;100.00;94871.84;5048332;28;20045;-59
2023/10/01 06:38:24;;;;;;;12.02;6.05;;;;;;;9.15;100.00;94874.25;5047677;28;20708;-58
2023/10/01 06:40:51;;;;;;;10.65;5.40;;;;;;;9.23;100.00;94880.56;5047989;28;20045;-58
2023/10/01 06:43:18;;;;;;;11.50;5.70;;;;;;;9.39;100.00;94877.50;5048602;28;20051;-58
2023/10/01 06:45:49;;;;;;;11.63;5.30;;;;;;;9.71;100.00;94879.59;5048279;28;20037;-59
2023/10/01 06:48:16;;;;;;;12.00;5.55;;;;;;;10.04;100.00;94883.22;5047512;28;20736;-59
2023/10/01 06:50:44;;;;;;;12.07;5.88;;;;;;;10.24;100.00;94875.41;5048521;28;20055;-59
2023/10/01 06:53:13;;;;;;;12.68;5.72;;;;;;;10.16;100.00;94869.13;5047936;28;20047;-58
2023/10/01 06:55:45;;;;;;;10.82;5.60;;;;;;;10.39;100.00;94874.31;5048394;28;20094;-59
2023/10/01 06:58:13;;;;;;;10.40;5.10;;;;;;;10.63;100.00;94870.00;5047539;28;20406;-58
2023/10/01 07:00:41;;;;;;;11.85;5.82;;;;;;;10.37;100.00;94873.91;5046544;28;20037;-59
2023/10/01 07:03:18;;;;;;;12.65;5.80;;;;;;;10.32;100.00;94868.78;5047678;28;20102;-58
2023/10/01 07:05:47;;;;;;;11.70;6.10;;;;;;;10.17;100.00;94867.97;5050853;28;20047;-58
2023/10/01 07:08:16;;;;;;;11.90;5.80;;;;;;;10.16;100.00;94877.34;5051641;28;20064;-58
2023/10/01 07:10:46;;;;;;;14.33;6.30;;;;;;;10.19;100.00;94874.63;5052238;28;20049;-59
2023/10/01 07:13:15;;;;;;;14.05;5.97;;;;;;;10.86;100.00;94863.31;5039130;28;20099;-59
2023/10/01 07:15:46;;;;;;;13.27;6.10;;;;;;;11.47;100.00;94860.41;5051831;28;20048;-59
2023/10/01 07:18:15;;;;;;;13.27;6.05;;;;;;;13.71;100.00;94859.13;5051793;28;20040;-59
2023/10/01 07:20:49;;;;;;;12.25;5.88;;;;;;;15.70;100.00;94849.28;5051849;28;20053;-60
2023/10/01 07:23:21;;;;;;;11.80;5.60;;;;;;;16.86;100.00;94851.13;5051128;28;20532;-60
2023/10/01 07:25:49;;;;;;;11.50;5.90;;;;;;;17.92;100.00;94848.75;5051790;28;20044;-60
2023/10/01 07:28:18;;;;;;;12.55;6.07;;;;;;;18.38;97.32;94854.16;5051083;28;20746;-60
2023/10/01 07:30:46;;;;;;;11.65;6.15;;;;;;;19.56;89.09;94862.22;5051727;28;20053;-60
2023/10/01 07:33:20;;;;;;;11.30;5.97;;;;;;;18.99;89.00;94860.59;5051687;28;20045;-60
2023/10/01 07:36:01;;;;;;;9.83;5.07;;;;;;;20.48;83.76;94847.34;5051597;28;20064;-60
2023/10/01 07:38:48;;;;;;;10.80;5.50;;;;;;;22.35;73.90;94857.09;5050931;28;21745;-60
2023/10/01 07:41:16;;;;;;;11.02;5.30;;;;;;;23.31;64.79;94848.94;5050754;28;21704;-59
2023/10/01 07:43:43;;;;;;;11.48;5.70;;;;;;;23.28;66.15;94855.50;5051587;28;20049;-58
2023/10/01 07:46:12;;;;;;;9.77;5.63;;;;;;;24.30;60.93;94860.28;5050678;28;20041;-59
2023/10/01 07:48:38;;;;;;;10.67;5.60;;;;;;;25.36;54.78;94848.47;5051495;28;20096;-59
2023/10/01 07:51:22;;;;;;;9.25;5.57;;;;;;;25.68;54.31;94855.78;5050751;28;20075;-59
2023/10/01 07:53:51;;;;;;;10.13;5.95;;;;;;;25.38;53.27;94854.38;5050944;28;20041;-59
2023/10/01 07:56:21;;;;;;;10.63;6.05;;;;;;;26.33;51.30;94854.72;5051319;28;20052;-59
2023/10/01 07:59:16;;;;;;;11.45;6.00;;;;;;;26.53;49.31;94855.94;5050069;28;20059;-59
2023/10/01 08:01:46;;;;;;;10.90;5.63;;;;;;;25.76;49.70;94864.56;5044652;28;20048;-59
2023/10/01 08:07:06;;;;;;;9.82;5.50;;;;;;;25.06;52.18;94863.34;5049956;28;20040;-59
2023/10/01 08:09:33;;;;;;;9.93;5.93;;;;;;;25.81;51.35;94861.03;5050407;28;20429;-59
2023/10/01 08:12:06;;;;;;;12.05;5.90;;;;;;;26.96;49.33;94861.66;5050017;28;20045;-59
2023/10/01 08:14:33;;;;;;;10.87;5.90;;;;;;;25.34;51.38;94860.19;5050745;28;20052;-59
2023/10/01 08:17:05;;;;;;;11.02;6.15;;;;;;;26.15;50.54;94860.66;5049843;28;20047;-60
2023/10/01 08:19:45;;;;;;;10.27;5.45;;;;;;;26.36;48.22;94861.38;5050414;28;20060;-60
2023/10/01 08:22:14;;;;;;;10.75;5.53;;;;;;;27.90;46.15;94865.56;5050082;28;20445;-59
2023/10/01 08:24:45;;;;;;;11.77;5.90;;;;;;;26.47;48.32;94867.13;5050466;28;20045;-59
2023/10/01 08:27:13;;;;;;;10.53;5.80;;;;;;;27.08;48.22;94864.06;5049565;28;20051;-59
2023/10/01 08:32:38;;;;;;;9.52;5.80;;;;;;;25.65;50.43;94861.59;5025624;28;20620;-60
2023/10/01 08:35:06;;;;;;;11.07;5.68;;;;;;;27.91;47.87;94861.50;5049630;28;20405;-60
2023/10/01 08:37:37;;;;;;;9.85;5.97;;;;;;;28.82;44.20;94859.63;5050130;28;20059;-60
2023/10/01 08:40:14;;;;;;;9.13;5.50;;;;;;;28.49;44.52;94861.88;5049663;28;20094;-59
2023/10/01 08:42:47;;;;;;;10.38;6.05;;;;;;;28.90;43.54;94866.28;5049987;28;20036;-60
2023/10/01 08:45:17;;;;;;;13.10;6.55;;;;;;;29.67;42.11;94863.84;5049123;28;20152;-60
2023/10/01 08:47:47;;;;;;;10.38;5.90;;;;;;;30.64;40.84;94855.69;5049758;28;20056;-60
2023/10/01 08:50:27;;;;;;;13.13;6.28;;;;;;;31.36;39.43;94858.47;5049195;28;20411;-60
2023/10/01 08:53:01;;;;;;;10.10;5.83;;;;;;;32.13;37.60;94865.88;5049371;28;20045;-60
2023/10/01 08:58:15;;;;;;;10.90;6.40;;;;;;;33.23;35.95;94866.84;5010308;28;1125170;-60
2023/10/01 09:00:49;;;;;;;12.02;5.97;;;;;;;33.43;35.07;94859.75;5050189;28;20131;-60
2023/10/01 09:03:28;;;;;;;10.90;6.00;;;;;;;33.94;34.44;94861.66;5049975;28;20937;-61
2023/10/01 09:06:03;;;;;;;10.45;6.28;;;;;;;34.78;33.19;94859.09;5032537;28;20049;-60
2023/10/01 09:08:32;;;;;;;11.45;6.45;;;;;;;32.44;35.47;94862.34;5050767;28;20049;-60
2023/10/01 09:11:12;;;;;;;11.60;6.07;;;;;;;31.98;37.26;94863.47;5032417;28;20443;-60
2023/10/01 09:13:46;;;;;;;10.75;6.30;;;;;;;31.40;38.12;94867.44;5050502;28;20049;-60
2023/10/01 09:16:15;;;;;;;11.97;6.67;;;;;;;32.02;37.84;94875.31;5048320;28;20432;-60
2023/10/01 09:19:03;;;;;;;11.75;6.40;;;;;;;34.41;34.20;94863.81;5050227;28;20045;-60
2023/10/01 09:21:40;;;;;;;11.13;6.18;;;;;;;34.56;33.64;94866.03;5029413;28;21659;-60
2023/10/01 09:24:38;;;;;;;10.90;5.90;;;;;;;35.09;31.65;94856.50;5021670;28;20516;-60
2023/10/01 09:27:18;;;;;;;11.25;6.07;;;;;;;34.55;32.73;94860.91;5018653;28;20067;-60
2023/10/01 09:29:48;;;;;;;10.43;5.60;;;;;;;35.53;30.25;94864.50;5030006;28;20514;-60
2023/10/01 09:32:19;;;;;;;11.63;5.65;;;;;;;35.53;31.46;94853.09;5047502;28;21599;-60
2023/10/01 09:34:57;;;;;;;10.98;5.65;;;;;;;36.38;29.32;94855.16;5049479;28;20101;-60
2023/10/01 09:37:47;;;;;;;10.18;5.53;;;;;;;35.72;29.99;94850.78;5035893;28;21424;-60
2023/10/01 09:43:03;;;;;;;12.30;5.63;;;;;;;32.27;33.81;94849.69;5029144;28;20643;-60
2023/10/01 09:45:41;;;;;;;12.48;6.22;;;;;;;32.57;33.73;94855.22;5029807;28;20054;-59
2023/10/01 09:48:28;;;;;;;11.70;5.90;;;;;;;33.24;32.64;94861.91;5028756;28;20408;-60
2023/10/01 09:51:08;;;;;;;10.75;5.90;;;;;;;35.96;30.76;94858.16;5028836;28;20041;-61
2023/10/01 09:53:38;;;;;;;10.73;5.78;;;;;;;37.11;28.23;94857.84;5029539;28;20041;-60
2023/10/01 09:56:05;;;;;;;13.17;6.07;;;;;;;33.85;31.42;94859.25;5028742;28;20075;-60
2023/10/01 09:58:33;;;;;;;13.07;6.63;;;;;;;31.10;36.40;94854.06;5029242;28;20049;-60
2023/10/01 10:01:08;;;;;;;12.90;6.30;;;;;;;35.79;30.79;94850.06;5028935;28;20061;-60
2023/10/01 10:03:38;;;;;;;12.07;6.05;;;;;;;35.53;29.94;94848.13;5029632;28;20045;-61
2023/10/01 10:06:09;;;;;;;12.40;5.85;;;;;;;36.75;29.21;94855.84;5028551;28;20045;-61
2023/10/01 10:08:38;;;;;;;10.77;5.90;;;;;;;35.77;29.32;94849.84;5029477;28;20049;-61
2023/10/01 10:11:24;;;;;;;11.85;6.10;;;;;;;34.49;30.79;94852.50;5028080;28;20045;-61
2023/10/01 10:13:57;;;;;;;10.50;5.88;;;;;;;34.48;31.00;94853.78;5027592;28;20050;-61
2023/10/01 10:16:34;;;;;;;10.25;5.75;;;;;;;34.33;30.53;94850.75;5029308;28;20064;-61
2023/10/01 10:19:23;;;;;;;10.20;5.55;;;;;;;35.35;29.80;94844.19;5028999;28;20103;-61
2023/10/01 10:24:35;;;;;;;9.73;5.38;;;;;;;36.50;28.35;94834.78;5029118;28;20057;-61
2023/10/01 10:27:07;;;;;;;10.38;5.53;;;;;;;35.22;29.56;94832.13;5028811;28;20048;-61
2023/10/01 10:29:46;;;;;;;11.68;6.05;;;;;;;34.76;30.24;94830.38;5028134;28;20632;-61
2023/10/01 10:32:14;;;;;;;10.57;5.70;;;;;;;37.04;27.42;94820.59;5029103;28;20037;-61
2023/10/01 10:35:15;;;;;;;11.37;5.47;;;;;;;37.65;26.52;94825.56;5029251;28;20044;-61
2023/10/01 10:37:53;;;;;;;10.88;6.03;;;;;;;37.16;27.48;94827.50;5028129;28;20569;-59
2023/10/01 10:40:23;;;;;;;12.15;6.10;;;;;;;37.32;25.48;94819.69;5035847;28;20104;-60
2023/10/01 10:42:57;;;;;;;11.00;6.40;;;;;;;33.79;28.48;94821.59;5028745;28;20465;-61
2023/10/01 10:45:45;;;;;;;10.52;5.82;;;;;;;32.17;31.96;94806.69;5029177;28;20058;-61
2023/10/01 10:48:16;;;;;;;10.10;5.30;;;;;;;36.38;25.95;94803.69;5016145;28;20114;-61
2023/10/01 10:50:50;;;;;;;10.90;5.72;;;;;;;34.30;27.18;94817.69;5029029;28;20042;-61
2023/10/01 10:53:39;;;;;;;9.18;5.32;;;;;;;35.38;25.42;94808.84;5028245;28;20897;-61
2023/10/01 10:56:10;;;;;;;10.57;5.40;;;;;;;32.49;27.97;94809.56;5033668;28;20045;-61
2023/10/01 10:58:46;;;;;;;10.05;5.30;;;;;;;35.49;25.33;94804.16;5027546;28;20053;-61
2023/10/01 11:01:20;;;;;;;9.53;5.30;;;;;;;36.71;21.59;94806.06;5028478;28;20041;-60
2023/10/01 11:03:50;;;;;;;9.05;5.15;;;;;;;37.72;21.57;94796.16;5017305;28;20094;-61
2023/10/01 11:06:39;;;;;;;10.07;5.22;;;;;;;37.07;20.71;94802.31;5027961;28;20391;-61
2023/10/01 11:09:22;;;;;;;9.23;5.30;;;;;;;36.98;21.62;94797.88;5028838;28;20048;-60
2023/10/01 11:11:51;;;;;;;7.95;4.63;;;;;;;38.35;20.21;94804.75;5016076;28;20522;-61
2023/10/01 11:14:21;;;;;;;8.37;5.00;;;;;;;38.51;20.40;94801.78;5028977;28;20044;-60
2023/10/01 11:16:49;;;;;;;8.77;5.00;;;;;;;38.38;20.16;94797.09;5028998;28;20398;-61
2023/10/01 11:19:21;;;;;;;9.02;5.20;;;;;;;37.91;21.33;94793.63;5026650;28;20468;-61
2023/10/01 11:21:57;;;;;;;10.35;5.85;;;;;;;36.31;23.01;94789.38;5029201;28;20041;-60
2023/10/01 11:24:39;;;;;;;10.05;5.53;;;;;;;35.38;23.31;94786.00;5027812;28;21684;-60
2023/10/01 11:30:20;;;;;;;10.73;5.82;;;;;;;34.00;25.17;94782.56;5019175;28;20110;-60
2023/10/01 11:35:59;;;;;;;10.45;5.72;;;;;;;31.64;27.93;94779.50;5027792;28;20126;-60
2023/10/01 11:38:27;;;;;;;10.63;6.13;;;;;;;29.54;29.75;94775.97;5027832;28;21841;-60
2023/10/01 11:41:08;;;;;;;10.97;5.47;;;;;;;28.63;30.04;94780.25;5028226;28;20068;-60
2023/10/01 11:43:58;;;;;;;11.05;5.40;;;;;;;28.44;30.35;94780.00;5028468;28;20520;-60
2023/10/01 11:46:32;;;;;;;11.15;5.45;;;;;;;28.08;30.91;94771.22;5027803;28;22302;-59
2023/10/01 11:49:06;;;;;;;8.77;4.95;;;;;;;27.22;29.21;94766.53;5028053;28;20047;-60
2023/10/01 11:51:45;;;;;;;11.68;5.63;;;;;;;27.39;29.53;94765.91;5030941;28;20525;-60
2023/10/01 11:54:13;;;;;;;10.00;4.93;;;;;;;27.53;30.12;94766.94;5031859;28;20098;-60
2023/10/01 11:57:08;;;;;;;9.93;4.60;;;;;;;26.49;29.00;94764.03;5031922;28;20551;-60
2023/10/01 11:59:38;;;;;;;8.80;4.40;;;;;;;26.78;28.01;94762.19;5051129;28;20918;-60
2023/10/01 12:02:20;;;;;;;9.75;4.90;;;;;;;26.63;27.21;94758.78;5038716;28;20045;-60
2023/10/01 12:04:59;;;;;;;7.72;4.25;;;;;;;26.74;25.16;94758.06;5051906;28;20549;-60
2023/10/01 12:07:37;;;;;;;8.63;4.40;;;;;;;26.89;28.10;94758.69;5039255;28;20310;-59
2023/10/01 12:10:05;;;;;;;9.90;4.75;;;;;;;26.32;30.80;94751.88;5038909;28;20401;-60
2023/10/01 12:12:37;;;;;;;10.00;4.70;;;;;;;26.49;32.17;94760.44;5022113;28;20540;-60
2023/10/01 12:17:53;;;;;;;10.88;4.82;;;;;;;26.69;31.68;94743.47;5050739;28;20049;-60
2023/10/01 12:20:23;;;;;;;9.53;4.50;;;;;;;26.14;33.20;94741.75;5050637;28;20043;-60
2023/10/01 12:23:08;;;;;;;9.88;4.68;;;;;;;26.23;33.36;94743.59;5050309;28;20045;-61
2023/10/01 12:26:31;;;;;;;10.02;4.80;;;;;;;25.89;33.21;94734.84;5051062;28;20547;-60
2023/10/01 12:29:11;;;;;;;9.85;4.50;;;;;;;25.58;33.45;94735.56;5049438;28;20591;-59
2023/10/01 12:31:27;;;;;;;11.15;4.90;;;;;;;25.77;33.75;94733.19;5049019;28;21755;-60
2023/10/01 12:33:58;;;;;;;11.33;5.30;;;;;;;25.75;39.88;94728.06;5050211;28;20047;-59
2023/10/01 12:36:31;;;;;;;11.27;5.32;;;;;;;25.14;43.67;94719.69;5050649;28;20059;-60